Terminal Aerodrome Forecast
Issued by NWS Blacksburg, VA

Current Version | Previous Version | Graphics & Text | Print | Product List | Glossary On
Versions: 1 2 3 4 5 6 7 8 9 10 11 12 13 14 15 16 17 18 19 20 21 22 23 24 25 26 27
000
FTUS41 KRNK 250520
TAFBLF
TAF
KBLF 250520Z 2506/2606 29005KT P6SM FEW050
     FM251400 28008KT P6SM SKC=

USA.gov is the U.S. government's official web portal to all federal, state and local government web resources and services.